map of LRCT home
LRCT - Airport
Location
City:  Cāmpia Turzii, Cluj, Romania
Name:RoAF 71st Air Base
Old (Alt.):Luna Airfield
ICAO:LRCT

Details
Type:Airport (Aerodrome, Airfield)
Use:Military
Latitude:46°30'08"N (46.502281)
Longitude:23°53'09"E (23.885914)
Datum:WGS 1984
Elevation:1083 ft (330 m)
Variation:5.78°E (WMM2015v2 magnetic declination)
0.13° annual change
Runways:1
Longest:8202 × 164 ft (2500 × 50 m), paved

Time
Time Zone:UTC+2 (DST+3)
Local Time:

Weather
METAR:LRCT 041400Z 31007KT 9999 BKN060 OVC080 09/06 Q1024 BLU BLU
TAF:LRCT 041100Z 0412/0512 36005KT 9999 SCT070 BKN100 PROB30
TEMPO 0412/0415 5000 -RA BR BKN050 OVC100
BECMG 0419/0421 3000 BR BKN020 OVC30 PROB30
TEMPO 0501/0505 1000 BR SCT003 BKN010

Related Locations
Nearby:
Farthest:CHT: 11432 mi / 18397 km
Waitangi [Tuuta], CIT, NZ

Find:

   beyond  
but within

Other Information
Maps:
NOTAMs:
Links:
Sources:

  
  • flag of Romania
  

Sectional Chart

Flight Planning
at skyvector.com

Satellite Image

Google Maps Satellite view

 

Copyright © 2004-2019 Karl L. Swartz. All rights reserved.
The Great Circle Mapper name and logo are trademarks of the Great Circle Mapper.
All other trademarks mentioned herein belong to their respective owners.
Please see credits for attibutions and further copyright information.

  Follow gcmap on Facebook Follow gcmap on Twitter GCmap on LinkedIn

hCard Microformat

Geo Microformat